Time;durP1;ratioP1;P1;durP2;ratioP2;P2;SDS_P1;SDS_P2;PMS_P1;PMS_P2;Temp;Humidity;BMP_temperature;BMP_pressure;BME280_temperature;BME280_humidity;BME280_pressure;Samples;Min_cycle;Max_cycle;Signal;HPM_P1;HPM_P2
2022/10/21 00:01:04;;;;;;;53.83;11.13;;;;;;;16.09;100.00;97772.81;5017648;28;20103;-55
2022/10/21 00:03:29;;;;;;;31.88;9.60;;;;;;;16.23;100.00;97780.63;5019600;28;20119;-55
2022/10/21 00:05:55;;;;;;;42.67;10.25;;;;;;;16.03;100.00;97783.72;5019438;28;20036;-56
2022/10/21 00:08:22;;;;;;;32.38;9.65;;;;;;;15.89;100.00;97772.34;5019602;28;20045;-57
2022/10/21 00:10:51;;;;;;;31.30;9.32;;;;;;;15.90;100.00;97753.00;5017900;28;20037;-56
2022/10/21 00:13:18;;;;;;;41.33;10.60;;;;;;;15.48;100.00;97749.59;5019511;28;20033;-55
2022/10/21 00:15:43;;;;;;;42.15;9.95;;;;;;;15.88;100.00;97754.88;5018707;28;20045;-55
2022/10/21 00:18:08;;;;;;;57.47;11.02;;;;;;;15.43;100.00;97764.81;5019044;28;20048;-54
2022/10/21 00:20:34;;;;;;;42.08;10.63;;;;;;;15.95;100.00;97755.31;5018881;28;20092;-56
2022/10/21 00:22:59;;;;;;;39.95;10.32;;;;;;;15.60;100.00;97761.06;5018342;28;20032;-56
2022/10/21 00:25:24;;;;;;;43.88;11.20;;;;;;;15.53;100.00;97744.00;5018798;28;20025;-55
2022/10/21 00:27:50;;;;;;;39.10;9.93;;;;;;;15.49;100.00;97743.38;5019504;28;20017;-54
2022/10/21 00:30:15;;;;;;;48.65;10.57;;;;;;;15.79;100.00;97744.97;5015986;28;20029;-54
2022/10/21 00:32:40;;;;;;;49.20;10.48;;;;;;;15.32;100.00;97751.50;5018866;28;20056;-55
2022/10/21 00:35:06;;;;;;;47.33;10.27;;;;;;;15.42;100.00;97747.38;5018359;28;20069;-54
2022/10/21 00:37:32;;;;;;;42.15;10.32;;;;;;;15.44;100.00;97748.09;5018875;28;20069;-54
2022/10/21 00:39:58;;;;;;;33.38;8.63;;;;;;;15.61;100.00;97742.56;5018268;28;20125;-55
2022/10/21 00:42:31;;;;;;;38.97;10.07;;;;;;;15.76;100.00;97750.44;5017224;28;20393;-55
2022/10/21 00:45:17;;;;;;;44.28;10.50;;;;;;;16.28;100.00;97741.66;5017698;28;20902;-55
2022/10/21 00:48:03;;;;;;;39.10;9.57;;;;;;;15.79;100.00;97729.22;5016783;28;20034;-55
2022/10/21 00:50:47;;;;;;;48.15;10.27;;;;;;;16.23;100.00;97724.50;5016846;28;20124;-55
2022/10/21 00:53:14;;;;;;;38.88;9.80;;;;;;;15.87;100.00;97716.38;5018113;28;20494;-55
2022/10/21 00:55:49;;;;;;;45.90;10.50;;;;;;;15.71;100.00;97707.78;5017262;28;20793;-55
2022/10/21 00:58:16;;;;;;;44.95;10.07;;;;;;;15.35;100.00;97709.28;5018409;28;20083;-55
2022/10/21 01:00:42;;;;;;;44.28;10.60;;;;;;;15.53;100.00;97715.97;5016546;28;20040;-54
2022/10/21 01:03:07;;;;;;;39.25;9.75;;;;;;;16.17;100.00;97717.88;5023082;28;20033;-57
2022/10/21 01:05:36;;;;;;;42.05;9.95;;;;;;;16.14;100.00;97721.56;5022768;28;20045;-56
2022/10/21 01:08:02;;;;;;;36.25;9.82;;;;;;;16.35;100.00;97713.97;5021958;28;20029;-56
2022/10/21 01:10:28;;;;;;;40.72;9.65;;;;;;;16.27;100.00;97718.94;5021920;28;20037;-54
2022/10/21 01:13:10;;;;;;;50.03;10.52;;;;;;;16.45;100.00;97705.44;5022276;28;20061;-55
2022/10/21 01:15:49;;;;;;;43.90;10.65;;;;;;;16.40;100.00;97689.97;5021886;28;20033;-54
2022/10/21 01:18:20;;;;;;;43.35;10.55;;;;;;;16.38;100.00;97690.06;5022859;28;20018;-54
2022/10/21 01:21:31;;;;;;;47.63;10.85;;;;;;;16.04;100.00;97695.97;5021547;28;20187;-54
2022/10/21 01:24:22;;;;;;;57.05;10.80;;;;;;;16.09;100.00;97693.88;5022158;28;20090;-54
2022/10/21 01:26:47;;;;;;;39.88;9.45;;;;;;;16.15;100.00;97683.75;5021381;28;20043;-54
2022/10/21 01:29:37;;;;;;;46.00;10.50;;;;;;;16.15;100.00;97678.50;5024208;28;20025;-54
2022/10/21 01:32:15;;;;;;;50.88;11.18;;;;;;;16.28;100.00;97678.50;5020509;28;20136;-54
2022/10/21 01:34:48;;;;;;;45.65;10.35;;;;;;;16.13;100.00;97674.31;5022593;28;20045;-54
2022/10/21 01:37:38;;;;;;;48.17;10.75;;;;;;;16.13;100.00;97674.31;5021182;28;20800;-55
2022/10/21 01:40:29;;;;;;;48.33;10.98;;;;;;;16.41;100.00;97672.38;5021227;28;20737;-56
2022/10/21 01:43:04;;;;;;;34.78;9.38;;;;;;;16.23;100.00;97680.63;5022089;28;20249;-56
2022/10/21 01:45:41;;;;;;;41.88;10.43;;;;;;;16.15;100.00;97682.94;5021455;28;20048;-54
2022/10/21 01:48:12;;;;;;;44.97;10.27;;;;;;;16.09;100.00;97683.34;5022311;28;20025;-54
2022/10/21 01:50:44;;;;;;;38.15;10.00;;;;;;;15.54;100.00;97672.94;5021420;28;20032;-56
2022/10/21 01:53:13;;;;;;;49.25;11.23;;;;;;;16.03;100.00;97663.59;5020989;28;20628;-54
2022/10/21 01:55:40;;;;;;;37.58;10.07;;;;;;;16.23;100.00;97674.50;5021268;28;20029;-55
2022/10/21 01:58:11;;;;;;;47.58;10.70;;;;;;;15.94;100.00;97678.19;5021954;28;20033;-54
2022/10/21 02:00:39;;;;;;;40.87;10.60;;;;;;;15.09;100.00;97661.91;5020341;28;20530;-55
2022/10/21 02:03:09;;;;;;;39.33;9.98;;;;;;;15.43;100.00;97660.50;5021114;28;20029;-57
2022/10/21 02:05:35;;;;;;;48.95;11.27;;;;;;;15.66;100.00;97657.28;5020400;28;20033;-55
2022/10/21 02:08:00;;;;;;;39.80;10.35;;;;;;;15.91;100.00;97654.72;5021771;28;20686;-56
2022/10/21 02:10:32;;;;;;;46.92;11.65;;;;;;;15.79;100.00;97645.06;5018946;28;20124;-54
2022/10/21 02:13:01;;;;;;;41.30;11.02;;;;;;;15.85;100.00;97657.78;5020271;28;20021;-54
2022/10/21 02:15:28;;;;;;;56.65;11.02;;;;;;;15.87;100.00;97673.47;5019425;28;20037;-55
2022/10/21 02:18:07;;;;;;;55.67;11.18;;;;;;;15.10;100.00;97674.06;5019529;28;20033;-55
2022/10/21 02:20:41;;;;;;;50.40;10.93;;;;;;;15.43;100.00;97678.06;5018519;28;20038;-54
2022/10/21 02:23:12;;;;;;;51.47;10.93;;;;;;;15.45;100.00;97684.06;5020482;28;20059;-55
2022/10/21 02:25:42;;;;;;;44.42;10.07;;;;;;;15.60;100.00;97688.34;5020620;28;20048;-57
2022/10/21 02:28:09;;;;;;;47.97;10.80;;;;;;;15.91;100.00;97681.03;5022377;28;20038;-58
2022/10/21 02:30:55;;;;;;;46.60;11.05;;;;;;;15.63;100.00;97681.19;5020270;28;20033;-54
2022/10/21 02:33:38;;;;;;;39.67;9.50;;;;;;;15.04;100.00;97679.72;5021106;28;20026;-56
2022/10/21 02:36:41;;;;;;;44.20;10.27;;;;;;;15.18;100.00;97676.19;5020062;28;20114;-56
2022/10/21 02:39:13;;;;;;;47.50;10.98;;;;;;;15.08;100.00;97681.22;5020472;28;20033;-55
2022/10/21 02:41:39;;;;;;;;;;;;;;;15.04;100.00;97675.31;5019394;28;20091;-56
2022/10/21 02:44:06;;;;;;;43.13;10.35;;;;;;;15.36;100.00;97671.53;5021189;28;20011;-54
2022/10/21 02:46:41;;;;;;;46.65;10.13;;;;;;;15.61;100.00;97678.66;5020843;28;20045;-54
2022/10/21 02:49:07;;;;;;;39.10;9.82;;;;;;;16.06;100.00;97673.03;5020558;28;20083;-55
2022/10/21 02:51:33;;;;;;;40.20;9.70;;;;;;;16.04;100.00;97659.97;5018504;28;20057;-54
2022/10/21 02:53:58;;;;;;;50.08;10.52;;;;;;;15.63;100.00;97649.63;5020715;28;20060;-54
2022/10/21 02:56:25;;;;;;;38.65;9.55;;;;;;;15.82;100.00;97650.09;5020235;28;20038;-54
2022/10/21 02:58:50;;;;;;;45.20;10.45;;;;;;;15.33;100.00;97637.56;5020989;28;20108;-54
2022/10/21 03:01:16;;;;;;;54.92;10.82;;;;;;;15.56;100.00;97639.50;5020070;28;20147;-54
2022/10/21 03:03:41;;;;;;;39.35;10.70;;;;;;;15.73;100.00;97648.06;5020786;28;20061;-54
2022/10/21 03:06:06;;;;;;;51.28;10.75;;;;;;;15.71;100.00;97648.16;5019728;28;20133;-56
2022/10/21 03:08:32;;;;;;;39.10;9.98;;;;;;;15.25;100.00;97638.06;5020307;28;20038;-55
2022/10/21 03:10:57;;;;;;;48.95;10.48;;;;;;;15.77;100.00;97632.00;5018829;28;20068;-54
2022/10/21 03:13:22;;;;;;;34.08;10.23;;;;;;;15.46;100.00;97629.72;5022447;28;20064;-54
2022/10/21 03:15:49;;;;;;;38.90;10.43;;;;;;;15.47;100.00;97634.03;5020159;28;20033;-55
2022/10/21 03:18:15;;;;;;;50.33;11.82;;;;;;;15.25;100.00;97624.09;5019271;28;20068;-56
2022/10/21 03:20:40;;;;;;;39.83;10.52;;;;;;;15.56;100.00;97623.75;5018991;28;20057;-54
2022/10/21 03:23:06;;;;;;;39.55;10.07;;;;;;;15.89;100.00;97622.44;5020013;28;20091;-54
2022/10/21 03:25:31;;;;;;;40.90;10.93;;;;;;;15.76;100.00;97621.59;5019759;28;20067;-56
2022/10/21 03:27:57;;;;;;;41.05;11.13;;;;;;;15.90;100.00;97610.97;5019849;28;20956;-54
2022/10/21 03:30:22;;;;;;;51.30;11.15;;;;;;;15.98;100.00;97599.91;5018859;28;20075;-56
2022/10/21 03:32:47;;;;;;;31.00;9.95;;;;;;;16.18;100.00;97607.25;5021727;28;20183;-55
2022/10/21 03:35:13;;;;;;;47.97;10.48;;;;;;;15.77;100.00;97604.88;5020139;28;20108;-54
2022/10/21 03:37:38;;;;;;;47.78;11.32;;;;;;;15.98;100.00;97595.50;5020254;28;20033;-54
2022/10/21 03:40:05;;;;;;;42.88;10.38;;;;;;;15.76;100.00;97597.94;5019754;28;20021;-56
2022/10/21 03:42:30;;;;;;;54.25;11.40;;;;;;;16.19;100.00;97605.47;5019840;28;20018;-56
2022/10/21 03:44:55;;;;;;;36.47;10.07;;;;;;;15.85;100.00;97597.28;5019915;28;20518;-54
2022/10/21 03:47:21;;;;;;;41.20;10.65;;;;;;;15.94;100.00;97596.66;5019915;28;20041;-54
2022/10/21 03:49:46;;;;;;;58.85;12.27;;;;;;;15.93;100.00;97592.34;5019856;28;20092;-56
2022/10/21 03:52:11;;;;;;;40.90;10.82;;;;;;;15.70;100.00;97598.31;5017908;28;20041;-56
2022/10/21 03:54:37;;;;;;;54.45;10.60;;;;;;;15.48;100.00;97589.25;5019225;28;20030;-55
2022/10/21 03:57:02;;;;;;;41.95;10.32;;;;;;;15.64;100.00;97593.47;5018922;28;20091;-55
2022/10/21 03:59:27;;;;;;;45.03;10.95;;;;;;;15.82;100.00;97586.16;5019301;28;20112;-55
2022/10/21 04:01:53;;;;;;;33.67;8.90;;;;;;;15.66;100.00;97575.78;5017511;28;20045;-56
2022/10/21 04:04:18;;;;;;;38.10;9.98;;;;;;;15.87;100.00;97571.72;5019596;28;20163;-54
2022/10/21 04:06:44;;;;;;;60.55;11.55;;;;;;;15.95;100.00;97566.78;5019259;28;20041;-54
2022/10/21 04:09:09;;;;;;;42.63;10.07;;;;;;;15.61;100.00;97574.34;5020655;28;20076;-54
2022/10/21 04:11:34;;;;;;;44.03;10.90;;;;;;;15.32;100.00;97570.22;5017874;28;20076;-54
2022/10/21 04:14:00;;;;;;;45.92;10.88;;;;;;;15.55;100.00;97563.38;5020272;28;20117;-55
2022/10/21 04:16:25;;;;;;;46.03;10.63;;;;;;;15.82;100.00;97562.47;5018884;28;20403;-54
2022/10/21 04:18:51;;;;;;;40.88;8.90;;;;;;;15.59;100.00;97555.19;5019133;28;20067;-54
2022/10/21 04:21:16;;;;;;;51.95;11.48;;;;;;;15.85;100.00;97549.97;5017479;28;20041;-55
2022/10/21 04:23:42;;;;;;;40.50;9.57;;;;;;;16.00;100.00;97542.78;5019187;28;20056;-56
2022/10/21 04:26:08;;;;;;;35.80;10.00;;;;;;;15.30;100.00;97544.03;5018899;28;20044;-55
2022/10/21 04:28:33;;;;;;;32.05;9.57;;;;;;;15.53;100.00;97524.09;5019934;28;20067;-55
2022/10/21 04:30:59;;;;;;;57.88;11.57;;;;;;;16.10;100.00;97524.53;5018063;28;20041;-58
2022/10/21 04:33:25;;;;;;;40.17;10.52;;;;;;;16.21;100.00;97516.75;5019340;28;20136;-57
2022/10/21 04:35:52;;;;;;;41.55;9.90;;;;;;;15.93;100.00;97513.44;5018054;28;20044;-56
2022/10/21 04:38:17;;;;;;;40.28;10.88;;;;;;;15.40;100.00;97516.19;5019828;28;20029;-55
2022/10/21 04:40:43;;;;;;;42.05;10.60;;;;;;;15.58;100.00;97515.88;5017391;28;20113;-56
2022/10/21 04:43:08;;;;;;;48.10;10.88;;;;;;;15.81;100.00;97503.78;5019071;28;20037;-57
2022/10/21 04:45:37;;;;;;;42.55;10.52;;;;;;;15.57;100.00;97503.69;5018556;28;20205;-56
2022/10/21 04:48:03;;;;;;;43.83;10.18;;;;;;;15.88;100.00;97498.94;5018767;28;20025;-55
2022/10/21 04:50:28;;;;;;;41.35;10.45;;;;;;;15.96;100.00;97499.25;5018013;28;20091;-55
2022/10/21 04:52:53;;;;;;;39.92;8.73;;;;;;;16.16;100.00;97490.75;5019011;28;20029;-54
2022/10/21 04:55:19;;;;;;;43.33;10.82;;;;;;;16.07;100.00;97493.22;5018465;28;20063;-56
2022/10/21 04:57:44;;;;;;;77.80;13.20;;;;;;;16.16;100.00;97480.22;5016013;28;20025;-55
2022/10/21 05:00:10;;;;;;;48.95;11.70;;;;;;;15.88;100.00;97476.13;5014622;28;20036;-57
2022/10/21 05:02:36;;;;;;;31.35;8.77;;;;;;;16.25;100.00;97468.22;5016824;28;20075;-59
2022/10/21 05:05:01;;;;;;;42.55;10.15;;;;;;;16.40;100.00;97460.16;5018036;28;20045;-56
2022/10/21 05:07:26;;;;;;;49.58;12.13;;;;;;;15.91;100.00;97454.84;5018002;28;20064;-55
2022/10/21 05:09:52;;;;;;;43.70;10.32;;;;;;;16.77;100.00;97459.09;5017515;28;20068;-56
2022/10/21 05:12:17;;;;;;;48.25;12.05;;;;;;;16.75;100.00;97471.53;5017110;28;20048;-55
2022/10/21 05:14:42;;;;;;;39.75;10.82;;;;;;;16.55;100.00;97470.38;5018102;28;20069;-55
2022/10/21 05:17:08;;;;;;;40.88;11.20;;;;;;;16.36;100.00;97467.44;5017327;28;20122;-55
2022/10/21 05:19:33;;;;;;;63.53;12.25;;;;;;;16.64;100.00;97474.13;5017986;28;20018;-55
2022/10/21 05:21:58;;;;;;;40.97;10.30;;;;;;;17.19;100.00;97484.16;5018302;28;20136;-54
2022/10/21 05:24:24;;;;;;;42.20;10.90;;;;;;;16.80;100.00;97475.63;5018696;28;20025;-55
2022/10/21 05:26:50;;;;;;;51.58;11.93;;;;;;;15.99;100.00;97462.22;5017942;28;20034;-55
2022/10/21 05:29:15;;;;;;;45.72;11.40;;;;;;;16.73;100.00;97473.44;5018748;28;20113;-55
2022/10/21 05:31:41;;;;;;;52.72;11.57;;;;;;;17.01;100.00;97460.88;5013842;28;20120;-55
2022/10/21 05:34:06;;;;;;;35.80;9.07;;;;;;;16.18;100.00;97466.97;5011718;28;20886;-57
2022/10/21 05:36:31;;;;;;;39.92;10.63;;;;;;;16.98;100.00;97466.34;5015551;28;20057;-57
2022/10/21 05:38:57;;;;;;;29.05;8.40;;;;;;;17.07;100.00;97465.66;5018180;28;20112;-58
2022/10/21 05:41:22;;;;;;;33.75;8.65;;;;;;;17.45;100.00;97467.16;5017865;28;20136;-57
2022/10/21 05:43:47;;;;;;;47.63;11.27;;;;;;;17.40;100.00;97476.38;5015659;28;20029;-58
2022/10/21 05:46:13;;;;;;;41.38;11.23;;;;;;;16.33;100.00;97471.09;5015870;28;20490;-57
2022/10/21 05:48:38;;;;;;;43.83;11.98;;;;;;;16.07;100.00;97461.66;5018885;28;20052;-58
2022/10/21 05:51:04;;;;;;;42.30;11.10;;;;;;;16.58;100.00;97449.09;5020004;28;20041;-57
2022/10/21 05:53:29;;;;;;;38.78;11.30;;;;;;;16.79;100.00;97448.44;5022048;28;20029;-57
2022/10/21 05:56:00;;;;;;;46.95;11.57;;;;;;;16.73;100.00;97452.38;5021847;28;20101;-57
2022/10/21 05:58:26;;;;;;;42.85;11.13;;;;;;;16.74;100.00;97459.34;5021716;28;20037;-58
2022/10/21 06:00:55;;;;;;;45.38;11.07;;;;;;;16.72;100.00;97473.56;5020195;28;20037;-59
2022/10/21 06:03:28;;;;;;;37.03;10.95;;;;;;;17.00;100.00;97480.28;5022337;28;20029;-57
2022/10/21 06:05:55;;;;;;;49.63;11.85;;;;;;;16.62;100.00;97483.94;5021837;28;20506;-58
2022/10/21 06:08:20;;;;;;;42.17;10.65;;;;;;;17.06;100.00;97485.06;5021466;28;20505;-56
2022/10/21 06:10:46;;;;;;;37.65;10.40;;;;;;;16.26;100.00;97490.94;5020667;28;20570;-57
2022/10/21 06:13:11;;;;;;;49.63;11.25;;;;;;;16.94;100.00;97491.25;5022056;28;20804;-57
2022/10/21 06:15:36;;;;;;;37.30;9.65;;;;;;;16.60;100.00;97488.47;5022208;28;20384;-58
2022/10/21 06:18:02;;;;;;;47.40;10.15;;;;;;;16.99;100.00;97488.28;5021976;28;20021;-56
2022/10/21 06:20:27;;;;;;;41.30;10.32;;;;;;;17.16;100.00;97501.03;5020138;28;20097;-59
2022/10/21 06:22:52;;;;;;;33.95;9.38;;;;;;;17.69;100.00;97503.13;5022534;28;20491;-58
2022/10/21 06:25:18;;;;;;;51.72;10.90;;;;;;;17.84;100.00;97509.84;5022247;28;20060;-57
2022/10/21 06:27:43;;;;;;;38.47;9.63;;;;;;;17.70;100.00;97505.66;5022096;28;20032;-58
2022/10/21 06:30:09;;;;;;;45.65;11.32;;;;;;;17.52;100.00;97522.91;5019942;28;20104;-56
2022/10/21 06:32:34;;;;;;;39.55;9.45;;;;;;;17.86;100.00;97512.38;5020662;28;20025;-56
2022/10/21 06:35:00;;;;;;;40.00;10.38;;;;;;;17.71;100.00;97514.41;5020932;28;20036;-56
2022/10/21 06:37:25;;;;;;;49.05;11.82;;;;;;;17.06;100.00;97516.69;5021676;28;20620;-56
2022/10/21 06:39:50;;;;;;;46.20;10.60;;;;;;;17.51;100.00;97515.94;5021185;28;20132;-56
2022/10/21 06:42:16;;;;;;;50.45;10.60;;;;;;;17.67;100.00;97523.50;5019911;28;20136;-57
2022/10/21 06:44:41;;;;;;;39.92;10.88;;;;;;;17.89;100.00;97520.91;5021025;28;20025;-56
2022/10/21 06:47:07;;;;;;;33.65;9.98;;;;;;;17.99;100.00;97528.09;5020549;28;20065;-56
2022/10/21 06:49:33;;;;;;;60.42;12.65;;;;;;;17.68;100.00;97533.94;5020069;28;20064;-56
2022/10/21 06:51:58;;;;;;;38.63;9.63;;;;;;;17.88;100.00;97527.16;5019655;28;20120;-57
2022/10/21 06:54:23;;;;;;;43.20;10.50;;;;;;;17.50;100.00;97536.19;5021502;28;20061;-56
2022/10/21 06:56:49;;;;;;;39.60;10.15;;;;;;;17.22;100.00;97526.94;5020119;28;20124;-58
2022/10/21 06:59:14;;;;;;;44.58;10.55;;;;;;;17.52;100.00;97534.28;5020099;28;20028;-59
2022/10/21 07:01:39;;;;;;;49.95;11.32;;;;;;;17.44;100.00;97531.41;5018306;28;20041;-57
2022/10/21 07:04:05;;;;;;;42.45;10.18;;;;;;;17.09;100.00;97531.41;5020647;28;20032;-57
2022/10/21 07:06:31;;;;;;;42.53;10.07;;;;;;;17.24;100.00;97526.78;5020185;28;20930;-57
2022/10/21 07:08:56;;;;;;;44.05;10.60;;;;;;;17.06;100.00;97519.31;5020938;28;20032;-56
2022/10/21 07:11:22;;;;;;;56.55;14.82;;;;;;;17.30;100.00;97526.34;5018426;28;20652;-56
2022/10/21 07:13:47;;;;;;;56.13;14.68;;;;;;;17.32;100.00;97527.06;5020689;28;20192;-59
2022/10/21 07:16:20;;;;;;;55.15;15.60;;;;;;;17.50;100.00;97536.19;5020315;28;20064;-57
2022/10/21 07:18:46;;;;;;;60.72;15.52;;;;;;;17.65;100.00;97531.53;5021989;28;20616;-56
2022/10/21 07:21:16;;;;;;;54.67;13.68;;;;;;;17.27;100.00;97532.66;5018222;28;20041;-57
2022/10/21 07:23:43;;;;;;;55.10;17.33;;;;;;;17.53;100.00;97533.34;5019866;28;20025;-59
2022/10/21 07:26:09;;;;;;;51.28;15.57;;;;;;;17.22;100.00;97536.59;5019682;28;20091;-60
2022/10/21 07:28:34;;;;;;;52.08;15.77;;;;;;;17.57;100.00;97543.63;5022569;28;20060;-57
2022/10/21 07:30:59;;;;;;;61.70;16.35;;;;;;;17.20;100.00;97534.09;5019625;28;20036;-58
2022/10/21 07:33:25;;;;;;;48.88;15.05;;;;;;;17.22;100.00;97528.69;5020419;28;20032;-57
2022/10/21 07:35:50;;;;;;;53.45;15.88;;;;;;;17.50;100.00;97541.47;5019282;28;20038;-59
2022/10/21 07:38:16;;;;;;;50.08;14.70;;;;;;;17.13;100.00;97546.06;5020298;28;20056;-57
2022/10/21 07:40:42;;;;;;;55.83;15.68;;;;;;;17.16;100.00;97537.91;5018323;28;20037;-58
2022/10/21 07:43:09;;;;;;;49.75;15.10;;;;;;;17.23;100.00;97538.31;5019657;28;20100;-59
2022/10/21 07:45:40;;;;;;;57.20;16.30;;;;;;;17.58;100.00;97530.34;5018712;28;20053;-58
2022/10/21 07:48:06;;;;;;;52.55;17.00;;;;;;;17.45;100.00;97526.97;5020604;28;20477;-59
2022/10/21 07:50:31;;;;;;;48.28;14.80;;;;;;;17.07;100.00;97536.81;5019372;28;20478;-58
2022/10/21 07:52:57;;;;;;;41.88;12.18;;;;;;;17.12;100.00;97531.19;5018751;28;20029;-59
2022/10/21 07:55:22;;;;;;;47.33;14.38;;;;;;;17.31;100.00;97531.50;5019492;28;20155;-58
2022/10/21 07:57:47;;;;;;;56.45;16.42;;;;;;;17.44;100.00;97518.22;5018619;28;20136;-58
2022/10/21 08:00:13;;;;;;;40.65;13.07;;;;;;;17.54;100.00;97506.00;5019494;28;20075;-58
2022/10/21 08:02:38;;;;;;;50.28;15.38;;;;;;;17.74;100.00;97495.72;5018566;28;20076;-58
2022/10/21 08:05:05;;;;;;;63.53;15.73;;;;;;;18.44;100.00;97502.47;5018790;28;20041;-57
2022/10/21 08:07:31;;;;;;;42.45;14.32;;;;;;;17.88;100.00;97498.13;5019964;28;20037;-59
2022/10/21 08:09:57;;;;;;;52.08;16.15;;;;;;;18.25;100.00;97504.91;5018781;28;20116;-58
2022/10/21 08:12:23;;;;;;;43.80;15.60;;;;;;;18.51;100.00;97510.75;5017427;28;20897;-58
2022/10/21 08:14:49;;;;;;;44.25;16.00;;;;;;;18.17;100.00;97517.88;5019361;28;20030;-58
2022/10/21 08:17:14;;;;;;;59.38;16.35;;;;;;;18.43;100.00;97523.72;5018606;28;20037;-58
2022/10/21 08:19:40;;;;;;;62.58;16.60;;;;;;;17.90;100.00;97527.88;5019050;28;20018;-58
2022/10/21 08:22:05;;;;;;;51.90;15.18;;;;;;;18.54;100.00;97541.34;5018599;28;20042;-59
2022/10/21 08:24:30;;;;;;;54.70;13.63;;;;;;;18.45;100.00;97532.34;5019877;28;20111;-58
2022/10/21 08:26:56;;;;;;;42.17;14.02;;;;;;;19.01;100.00;97534.84;5019195;28;20046;-58
2022/10/21 08:29:21;;;;;;;56.40;15.32;;;;;;;18.75;100.00;97533.44;5018525;28;20434;-60
2022/10/21 08:31:47;;;;;;;43.72;14.77;;;;;;;18.72;100.00;97541.66;5017039;28;20267;-58
2022/10/21 08:34:12;;;;;;;54.92;15.73;;;;;;;19.04;100.00;97541.66;5018371;28;20063;-58
2022/10/21 08:36:37;;;;;;;41.25;13.70;;;;;;;18.89;100.00;97546.41;5018227;28;20272;-59
2022/10/21 08:39:04;;;;;;;43.53;14.05;;;;;;;18.98;100.00;97550.94;5019230;28;20446;-58
2022/10/21 08:41:29;;;;;;;54.10;14.18;;;;;;;18.57;100.00;97552.50;5017032;28;20037;-60
2022/10/21 08:44:10;;;;;;;35.22;12.02;;;;;;;19.29;100.00;97556.31;5019648;28;20022;-59
2022/10/21 08:46:42;;;;;;;50.90;14.10;;;;;;;19.25;100.00;97545.16;5018173;28;20041;-59
2022/10/21 08:49:23;;;;;;;48.60;14.05;;;;;;;19.35;100.00;97552.31;5018887;28;20025;-59
2022/10/21 08:51:54;;;;;;;43.35;13.50;;;;;;;18.89;100.00;97541.13;5016718;28;20037;-58
2022/10/21 08:54:28;;;;;;;49.25;13.98;;;;;;;18.91;100.00;97539.19;5019645;28;20025;-59
2022/10/21 08:56:57;;;;;;;43.03;12.10;;;;;;;19.22;100.00;97541.94;5018363;28;20037;-58
2022/10/21 08:59:24;;;;;;;46.72;13.70;;;;;;;19.19;100.00;97524.53;5018332;28;20083;-58
2022/10/21 09:01:59;;;;;;;44.08;14.38;;;;;;;19.68;100.00;97538.03;5016405;28;20042;-59
2022/10/21 09:04:54;;;;;;;51.38;15.43;;;;;;;18.97;100.00;97528.13;5019840;28;20029;-58
2022/10/21 09:07:49;;;;;;;45.63;14.90;;;;;;;19.49;100.00;97537.94;5018190;28;20045;-58
2022/10/21 09:10:41;;;;;;;46.78;14.63;;;;;;;18.97;100.00;97522.84;5016724;28;20029;-57
2022/10/21 09:13:12;;;;;;;43.90;14.43;;;;;;;19.00;100.00;97519.94;5009930;28;20069;-58
2022/10/21 09:15:56;;;;;;;44.08;14.52;;;;;;;18.78;100.00;97512.06;5017877;28;20045;-58
2022/10/21 09:18:42;;;;;;;52.42;15.35;;;;;;;18.77;100.00;97515.69;5019325;28;20026;-58
2022/10/21 09:21:29;;;;;;;57.28;16.23;;;;;;;18.75;100.00;97507.91;5017185;28;20135;-58
2022/10/21 09:24:05;;;;;;;48.63;13.93;;;;;;;18.75;100.00;97504.38;5022139;28;20040;-60
2022/10/21 09:26:33;;;;;;;51.42;14.85;;;;;;;19.22;100.00;97515.50;5021486;28;20041;-59
2022/10/21 09:29:12;;;;;;;41.63;14.68;;;;;;;19.16;100.00;97516.84;5023183;28;20478;-59
2022/10/21 09:31:37;;;;;;;53.60;17.23;;;;;;;19.21;100.00;97514.66;5021196;28;20060;-57
2022/10/21 09:34:13;;;;;;;52.25;13.20;;;;;;;19.07;100.00;97517.63;5022052;28;20791;-58
2022/10/21 09:36:46;;;;;;;43.83;11.85;;;;;;;19.38;100.00;97509.75;5022852;28;20080;-58
2022/10/21 09:39:36;;;;;;;55.30;13.73;;;;;;;19.30;100.00;97512.19;5021709;28;20079;-59
2022/10/21 09:42:02;;;;;;;46.13;13.50;;;;;;;19.12;100.00;97510.16;5021210;28;20041;-58
2022/10/21 09:44:28;;;;;;;42.88;13.70;;;;;;;19.06;100.00;97500.94;5023669;28;20098;-58
2022/10/21 09:46:54;;;;;;;36.42;11.23;;;;;;;19.58;100.00;97506.25;5021978;28;20049;-58
2022/10/21 09:49:35;;;;;;;51.13;14.05;;;;;;;19.61;100.00;97507.78;5021809;28;20036;-60
2022/10/21 09:52:04;;;;;;;40.00;13.50;;;;;;;19.76;100.00;97521.56;5020933;28;20029;-58
2022/10/21 09:54:38;;;;;;;47.40;14.75;;;;;;;19.73;100.00;97520.00;5022263;28;20559;-60
2022/10/21 09:57:17;;;;;;;41.78;13.73;;;;;;;19.30;100.00;97536.84;5021750;28;20061;-59
2022/10/21 09:59:57;;;;;;;63.20;18.33;;;;;;;19.57;100.00;97538.13;5021089;28;20020;-62
2022/10/21 10:02:30;;;;;;;45.75;14.65;;;;;;;19.36;100.00;97538.97;5020082;28;20033;-59
2022/10/21 10:04:56;;;;;;;44.50;13.70;;;;;;;20.04;100.00;97543.81;5023050;28;20025;-58
2022/10/21 10:07:24;;;;;;;39.75;12.38;;;;;;;20.17;100.00;97555.00;5020997;28;20422;-58
2022/10/21 10:09:50;;;;;;;49.17;15.02;;;;;;;19.86;100.00;97569.22;5036174;28;20041;-59
2022/10/21 10:12:20;;;;;;;44.85;14.70;;;;;;;19.73;100.00;97583.50;5020950;28;20041;-58
2022/10/21 10:14:46;;;;;;;50.17;16.63;;;;;;;19.38;100.00;97574.06;5021514;28;20026;-58
2022/10/21 10:17:30;;;;;;;50.63;15.18;;;;;;;19.65;100.00;97570.06;5021134;28;20075;-58
2022/10/21 10:20:04;;;;;;;44.53;15.38;;;;;;;19.76;100.00;97571.84;5021070;28;20025;-60
2022/10/21 10:22:36;;;;;;;43.38;14.57;;;;;;;20.28;100.00;97571.78;5021152;28;20037;-58
2022/10/21 10:25:08;;;;;;;42.17;14.30;;;;;;;20.22;100.00;97573.97;5021639;28;20053;-60
2022/10/21 10:27:35;;;;;;;44.33;12.43;;;;;;;20.12;100.00;97564.31;5020951;28;20072;-58
2022/10/21 10:30:01;;;;;;;42.75;12.35;;;;;;;20.67;100.00;97546.22;5022157;28;20036;-59
2022/10/21 10:32:33;;;;;;;39.25;12.23;;;;;;;21.06;100.00;97529.50;5019952;28;20037;-58
2022/10/21 10:35:04;;;;;;;34.13;11.25;;;;;;;20.73;100.00;97513.03;5019855;28;20037;-58
2022/10/21 10:37:35;;;;;;;39.88;11.57;;;;;;;20.40;100.00;97499.16;5018829;28;20041;-59
2022/10/21 10:40:06;;;;;;;38.40;11.50;;;;;;;20.21;100.00;97476.97;5017130;28;20048;-58
2022/10/21 10:42:40;;;;;;;35.63;10.50;;;;;;;20.36;100.00;97495.13;5021855;28;20131;-59
2022/10/21 10:45:19;;;;;;;43.30;12.18;;;;;;;19.95;100.00;97481.09;5021118;28;20129;-60
2022/10/21 10:47:55;;;;;;;41.58;9.82;;;;;;;20.77;100.00;97466.75;5021108;28;20076;-58
2022/10/21 10:50:36;;;;;;;45.75;10.82;;;;;;;20.23;100.00;97479.47;5020277;28;20029;-59
2022/10/21 10:53:30;;;;;;;44.63;10.98;;;;;;;20.52;100.00;97476.88;5019784;28;20549;-59
2022/10/21 10:56:14;;;;;;;40.63;10.15;;;;;;;21.15;100.00;97459.72;5017940;28;20511;-58
2022/10/21 10:58:47;;;;;;;42.45;13.10;;;;;;;20.87;100.00;97445.53;5018310;28;20079;-59
2022/10/21 11:01:22;;;;;;;49.47;10.55;;;;;;;20.53;100.00;97438.84;5018084;28;20037;-60
2022/10/21 11:03:56;;;;;;;38.42;11.50;;;;;;;21.11;100.00;97442.44;5020665;28;20380;-59
2022/10/21 11:06:34;;;;;;;34.50;9.05;;;;;;;21.22;100.00;97413.09;5020196;28;20041;-58
2022/10/21 11:09:00;;;;;;;37.67;11.45;;;;;;;21.15;100.00;97428.72;5020129;28;20033;-57
2022/10/21 11:11:35;;;;;;;39.22;12.20;;;;;;;20.35;100.00;97421.94;5018142;28;20044;-58
2022/10/21 11:14:01;;;;;;;37.78;13.43;;;;;;;20.18;100.00;97416.38;5021181;28;20207;-57
2022/10/21 11:16:39;;;;;;;36.78;11.73;;;;;;;21.31;100.00;97422.00;5019917;28;20128;-58
2022/10/21 11:19:21;;;;;;;34.33;10.27;;;;;;;20.70;100.00;97428.53;5018863;28;20134;-58
2022/10/21 11:21:52;;;;;;;48.08;12.73;;;;;;;20.88;100.00;97416.25;5019956;28;20605;-58